sensor_id;sensor_type;location;lat;lon;timestamp;pressure;altitude;pressure_sealevel;temperature;humidity
55916;BME280;41826;53.246;-6.670;2023-02-19T00:01:23;102513.34;;;9.59;100.00
55916;BME280;41826;53.246;-6.670;2023-02-19T00:03:53;102510.66;;;9.61;100.00
55916;BME280;41826;53.246;-6.670;2023-02-19T00:06:21;102508.13;;;9.73;100.00
55916;BME280;41826;53.246;-6.670;2023-02-19T00:08:47;102513.38;;;9.88;100.00
55916;BME280;41826;53.246;-6.670;2023-02-19T00:11:15;102510.94;;;9.85;100.00
55916;BME280;41826;53.246;-6.670;2023-02-19T00:13:44;102513.28;;;9.75;100.00
55916;BME280;41826;53.246;-6.670;2023-02-19T00:16:14;102513.47;;;9.86;100.00
55916;BME280;41826;53.246;-6.670;2023-02-19T00:18:40;102516.38;;;9.82;100.00
55916;BME280;41826;53.246;-6.670;2023-02-19T00:21:06;102517.97;;;9.84;100.00
55916;BME280;41826;53.246;-6.670;2023-02-19T00:23:32;102517.19;;;9.82;100.00
55916;BME280;41826;53.246;-6.670;2023-02-19T00:26:05;102525.81;;;9.84;100.00
55916;BME280;41826;53.246;-6.670;2023-02-19T00:28:31;102521.53;;;9.83;100.00
55916;BME280;41826;53.246;-6.670;2023-02-19T00:31:06;102521.88;;;9.77;100.00
55916;BME280;41826;53.246;-6.670;2023-02-19T00:33:32;102521.59;;;9.82;100.00
55916;BME280;41826;53.246;-6.670;2023-02-19T00:36:00;102526.59;;;9.86;100.00
55916;BME280;41826;53.246;-6.670;2023-02-19T00:38:26;102530.13;;;9.57;100.00
55916;BME280;41826;53.246;-6.670;2023-02-19T00:40:51;102540.72;;;9.69;100.00
55916;BME280;41826;53.246;-6.670;2023-02-19T00:43:17;102540.56;;;9.72;100.00
55916;BME280;41826;53.246;-6.670;2023-02-19T00:45:42;102548.50;;;9.71;100.00
55916;BME280;41826;53.246;-6.670;2023-02-19T00:48:07;102548.50;;;9.71;100.00
55916;BME280;41826;53.246;-6.670;2023-02-19T00:50:33;102558.16;;;9.70;100.00
55916;BME280;41826;53.246;-6.670;2023-02-19T00:52:58;102557.00;;;9.60;100.00
55916;BME280;41826;53.246;-6.670;2023-02-19T00:55:23;102557.41;;;9.68;100.00
55916;BME280;41826;53.246;-6.670;2023-02-19T00:57:49;102560.28;;;9.64;100.00
55916;BME280;41826;53.246;-6.670;2023-02-19T01:00:14;102549.44;;;9.70;100.00
55916;BME280;41826;53.246;-6.670;2023-02-19T01:02:40;102548.00;;;9.64;100.00
55916;BME280;41826;53.246;-6.670;2023-02-19T01:05:05;102539.88;;;9.69;100.00
55916;BME280;41826;53.246;-6.670;2023-02-19T01:07:30;102536.97;;;9.73;100.00
55916;BME280;41826;53.246;-6.670;2023-02-19T01:09:56;102536.69;;;9.78;100.00
55916;BME280;41826;53.246;-6.670;2023-02-19T01:12:21;102534.63;;;9.69;100.00
55916;BME280;41826;53.246;-6.670;2023-02-19T01:14:48;102543.78;;;9.62;100.00
55916;BME280;41826;53.246;-6.670;2023-02-19T01:17:13;102546.56;;;9.44;100.00
55916;BME280;41826;53.246;-6.670;2023-02-19T01:19:39;102546.28;;;9.35;100.00
55916;BME280;41826;53.246;-6.670;2023-02-19T01:22:04;102536.19;;;9.13;100.00
55916;BME280;41826;53.246;-6.670;2023-02-19T01:24:29;102534.28;;;9.30;100.00
55916;BME280;41826;53.246;-6.670;2023-02-19T01:26:55;102518.50;;;9.46;100.00
55916;BME280;41826;53.246;-6.670;2023-02-19T01:29:20;102515.03;;;9.46;100.00
55916;BME280;41826;53.246;-6.670;2023-02-19T01:31:46;102517.47;;;9.49;100.00
55916;BME280;41826;53.246;-6.670;2023-02-19T01:34:11;102537.94;;;9.28;100.00
55916;BME280;41826;53.246;-6.670;2023-02-19T01:36:37;102541.44;;;9.13;100.00
55916;BME280;41826;53.246;-6.670;2023-02-19T01:39:04;102543.25;;;9.26;100.00
55916;BME280;41826;53.246;-6.670;2023-02-19T01:41:37;102533.19;;;9.35;100.00
55916;BME280;41826;53.246;-6.670;2023-02-19T01:46:45;102523.66;;;9.48;100.00
55916;BME280;41826;53.246;-6.670;2023-02-19T01:49:17;102525.53;;;9.60;100.00
55916;BME280;41826;53.246;-6.670;2023-02-19T01:51:48;102530.13;;;9.57;100.00
55916;BME280;41826;53.246;-6.670;2023-02-19T01:54:18;102547.78;;;9.39;100.00
55916;BME280;41826;53.246;-6.670;2023-02-19T01:56:47;102533.38;;;9.46;100.00
55916;BME280;41826;53.246;-6.670;2023-02-19T01:59:15;102534.84;;;9.36;100.00
55916;BME280;41826;53.246;-6.670;2023-02-19T02:01:41;102532.38;;;9.18;100.00
55916;BME280;41826;53.246;-6.670;2023-02-19T02:04:07;102526.00;;;9.52;100.00
55916;BME280;41826;53.246;-6.670;2023-02-19T02:06:48;102529.97;;;9.60;100.00
55916;BME280;41826;53.246;-6.670;2023-02-19T02:09:17;102528.44;;;9.55;100.00
55916;BME280;41826;53.246;-6.670;2023-02-19T02:12:01;102528.06;;;9.62;100.00
55916;BME280;41826;53.246;-6.670;2023-02-19T02:14:30;102547.66;;;9.26;100.00
55916;BME280;41826;53.246;-6.670;2023-02-19T02:22:09;102557.66;;;8.41;100.00
55916;BME280;41826;53.246;-6.670;2023-02-19T02:27:38;102555.00;;;8.25;100.00
55916;BME280;41826;53.246;-6.670;2023-02-19T02:35:30;102540.47;;;8.36;100.00
55916;BME280;41826;53.246;-6.670;2023-02-19T02:38:01;102528.31;;;8.35;100.00
55916;BME280;41826;53.246;-6.670;2023-02-19T02:40:27;102522.41;;;8.31;100.00
55916;BME280;41826;53.246;-6.670;2023-02-19T02:42:56;102510.50;;;8.25;100.00
55916;BME280;41826;53.246;-6.670;2023-02-19T02:45:25;102504.00;;;8.33;100.00
55916;BME280;41826;53.246;-6.670;2023-02-19T02:48:11;102510.44;;;8.43;100.00
55916;BME280;41826;53.246;-6.670;2023-02-19T02:53:40;102523.72;;;9.02;100.00
55916;BME280;41826;53.246;-6.670;2023-02-19T02:56:27;102547.44;;;9.15;100.00
55916;BME280;41826;53.246;-6.670;2023-02-19T02:58:55;102562.41;;;9.13;100.00
55916;BME280;41826;53.246;-6.670;2023-02-19T03:01:26;102569.31;;;9.14;100.00
55916;BME280;41826;53.246;-6.670;2023-02-19T03:07:17;102621.81;;;8.96;100.00
55916;BME280;41826;53.246;-6.670;2023-02-19T03:09:43;102613.38;;;8.75;100.00
55916;BME280;41826;53.246;-6.670;2023-02-19T03:12:14;102598.53;;;8.60;100.00
55916;BME280;41826;53.246;-6.670;2023-02-19T03:15:03;102582.34;;;8.36;100.00
55916;BME280;41826;53.246;-6.670;2023-02-19T03:17:52;102586.84;;;8.65;100.00
55916;BME280;41826;53.246;-6.670;2023-02-19T03:20:43;102567.50;;;8.68;100.00
55916;BME280;41826;53.246;-6.670;2023-02-19T03:23:11;102572.75;;;8.52;100.00
55916;BME280;41826;53.246;-6.670;2023-02-19T03:25:39;102555.97;;;8.56;100.00
55916;BME280;41826;53.246;-6.670;2023-02-19T03:28:26;102557.41;;;8.46;100.00
55916;BME280;41826;53.246;-6.670;2023-02-19T03:31:15;102542.94;;;8.39;100.00
55916;BME280;41826;53.246;-6.670;2023-02-19T03:33:44;102536.41;;;8.30;100.00
55916;BME280;41826;53.246;-6.670;2023-02-19T03:36:12;102534.34;;;8.53;100.00
55916;BME280;41826;53.246;-6.670;2023-02-19T03:38:57;102545.84;;;8.66;100.00
55916;BME280;41826;53.246;-6.670;2023-02-19T03:44:12;102555.34;;;8.83;100.00
55916;BME280;41826;53.246;-6.670;2023-02-19T03:49:23;102565.91;;;8.65;100.00
55916;BME280;41826;53.246;-6.670;2023-02-19T03:52:09;102562.94;;;8.56;100.00
55916;BME280;41826;53.246;-6.670;2023-02-19T03:59:47;102529.56;;;8.28;100.00
55916;BME280;41826;53.246;-6.670;2023-02-19T04:02:22;102524.59;;;8.39;100.00
55916;BME280;41826;53.246;-6.670;2023-02-19T04:05:05;102525.22;;;8.44;100.00
55916;BME280;41826;53.246;-6.670;2023-02-19T04:07:35;102532.16;;;8.61;100.00
55916;BME280;41826;53.246;-6.670;2023-02-19T04:10:04;102540.34;;;8.55;100.00
55916;BME280;41826;53.246;-6.670;2023-02-19T04:12:32;102552.91;;;8.80;100.00
55916;BME280;41826;53.246;-6.670;2023-02-19T04:15:02;102570.81;;;8.87;100.00
55916;BME280;41826;53.246;-6.670;2023-02-19T04:17:36;102570.56;;;8.92;100.00
55916;BME280;41826;53.246;-6.670;2023-02-19T04:20:07;102570.16;;;8.84;100.00
55916;BME280;41826;53.246;-6.670;2023-02-19T04:22:35;102587.63;;;8.67;100.00
55916;BME280;41826;53.246;-6.670;2023-02-19T04:25:01;102573.94;;;8.62;100.00
55916;BME280;41826;53.246;-6.670;2023-02-19T04:27:27;102579.59;;;8.71;100.00
55916;BME280;41826;53.246;-6.670;2023-02-19T04:29:52;102584.50;;;8.77;100.00
55916;BME280;41826;53.246;-6.670;2023-02-19T04:32:18;102583.06;;;8.55;100.00
55916;BME280;41826;53.246;-6.670;2023-02-19T04:34:43;102577.84;;;8.71;100.00
55916;BME280;41826;53.246;-6.670;2023-02-19T04:37:09;102588.81;;;8.78;100.00
55916;BME280;41826;53.246;-6.670;2023-02-19T04:39:34;102581.97;;;8.75;100.00
55916;BME280;41826;53.246;-6.670;2023-02-19T04:42:00;102586.13;;;8.79;100.00
55916;BME280;41826;53.246;-6.670;2023-02-19T04:44:25;102602.06;;;8.90;100.00
55916;BME280;41826;53.246;-6.670;2023-02-19T04:46:51;102598.84;;;8.85;100.00
55916;BME280;41826;53.246;-6.670;2023-02-19T04:49:16;102600.72;;;8.67;100.00
55916;BME280;41826;53.246;-6.670;2023-02-19T04:51:42;102600.47;;;8.88;100.00
55916;BME280;41826;53.246;-6.670;2023-02-19T04:54:07;102599.22;;;8.79;100.00
55916;BME280;41826;53.246;-6.670;2023-02-19T04:56:33;102593.69;;;8.68;100.00
55916;BME280;41826;53.246;-6.670;2023-02-19T04:58:58;102588.47;;;8.52;100.00
55916;BME280;41826;53.246;-6.670;2023-02-19T05:01:24;102578.25;;;8.79;100.00
55916;BME280;41826;53.246;-6.670;2023-02-19T05:03:50;102585.09;;;8.82;100.00
55916;BME280;41826;53.246;-6.670;2023-02-19T05:06:15;102584.75;;;8.72;100.00
55916;BME280;41826;53.246;-6.670;2023-02-19T05:08:41;102586.94;;;8.80;100.00
55916;BME280;41826;53.246;-6.670;2023-02-19T05:11:08;102583.41;;;8.65;100.00
55916;BME280;41826;53.246;-6.670;2023-02-19T05:13:35;102567.69;;;8.49;100.00
55916;BME280;41826;53.246;-6.670;2023-02-19T05:16:07;102559.75;;;8.51;100.00
55916;BME280;41826;53.246;-6.670;2023-02-19T05:18:33;102563.81;;;8.56;100.00
55916;BME280;41826;53.246;-6.670;2023-02-19T05:20:59;102557.72;;;8.40;100.00
55916;BME280;41826;53.246;-6.670;2023-02-19T05:23:25;102538.09;;;8.15;100.00
55916;BME280;41826;53.246;-6.670;2023-02-19T05:25:51;102514.03;;;8.24;100.00
55916;BME280;41826;53.246;-6.670;2023-02-19T05:28:16;102498.09;;;8.13;100.00
55916;BME280;41826;53.246;-6.670;2023-02-19T05:30:49;102481.22;;;8.35;100.00
55916;BME280;41826;53.246;-6.670;2023-02-19T05:33:17;102478.84;;;8.30;100.00
55916;BME280;41826;53.246;-6.670;2023-02-19T05:35:45;102473.13;;;8.23;100.00
55916;BME280;41826;53.246;-6.670;2023-02-19T05:38:11;102446.28;;;8.36;100.00
55916;BME280;41826;53.246;-6.670;2023-02-19T05:40:37;102428.38;;;8.28;100.00
55916;BME280;41826;53.246;-6.670;2023-02-19T05:43:03;102437.47;;;7.89;100.00
55916;BME280;41826;53.246;-6.670;2023-02-19T05:45:29;102421.78;;;8.05;100.00
55916;BME280;41826;53.246;-6.670;2023-02-19T05:47:54;102423.31;;;7.93;100.00
55916;BME280;41826;53.246;-6.670;2023-02-19T05:50:20;102421.47;;;8.11;100.00
55916;BME280;41826;53.246;-6.670;2023-02-19T05:52:45;102410.22;;;8.25;100.00
55916;BME280;41826;53.246;-6.670;2023-02-19T05:55:11;102429.56;;;8.22;100.00
55916;BME280;41826;53.246;-6.670;2023-02-19T05:57:44;102419.28;;;8.03;100.00
55916;BME280;41826;53.246;-6.670;2023-02-19T06:00:11;102384.25;;;8.06;100.00
55916;BME280;41826;53.246;-6.670;2023-02-19T06:02:37;102362.59;;;7.88;100.00
55916;BME280;41826;53.246;-6.670;2023-02-19T06:05:03;102358.63;;;7.97;100.00
55916;BME280;41826;53.246;-6.670;2023-02-19T06:07:32;102351.88;;;7.93;100.00
55916;BME280;41826;53.246;-6.670;2023-02-19T06:09:58;102353.97;;;7.86;100.00
55916;BME280;41826;53.246;-6.670;2023-02-19T06:12:23;102352.03;;;7.58;100.00
55916;BME280;41826;53.246;-6.670;2023-02-19T06:14:49;102335.88;;;7.67;100.00
55916;BME280;41826;53.246;-6.670;2023-02-19T06:17:14;102331.13;;;7.74;100.00
55916;BME280;41826;53.246;-6.670;2023-02-19T06:19:40;102346.22;;;7.85;100.00
55916;BME280;41826;53.246;-6.670;2023-02-19T06:22:05;102346.81;;;7.90;100.00
55916;BME280;41826;53.246;-6.670;2023-02-19T06:24:31;102335.16;;;7.79;100.00
55916;BME280;41826;53.246;-6.670;2023-02-19T06:26:56;102335.34;;;7.76;100.00
55916;BME280;41826;53.246;-6.670;2023-02-19T06:29:22;102334.06;;;7.52;100.00
55916;BME280;41826;53.246;-6.670;2023-02-19T06:31:47;102318.31;;;7.69;100.00
55916;BME280;41826;53.246;-6.670;2023-02-19T06:34:13;102321.09;;;7.66;100.00
55916;BME280;41826;53.246;-6.670;2023-02-19T06:36:38;102316.03;;;7.63;100.00
55916;BME280;41826;53.246;-6.670;2023-02-19T06:39:04;102319.66;;;7.60;100.00
55916;BME280;41826;53.246;-6.670;2023-02-19T06:41:30;102318.72;;;7.62;100.00
55916;BME280;41826;53.246;-6.670;2023-02-19T06:43:56;102317.72;;;7.64;100.00
55916;BME280;41826;53.246;-6.670;2023-02-19T06:46:22;102324.78;;;7.62;100.00
55916;BME280;41826;53.246;-6.670;2023-02-19T06:48:47;102324.53;;;7.67;100.00
55916;BME280;41826;53.246;-6.670;2023-02-19T06:51:15;102315.28;;;7.45;100.00
55916;BME280;41826;53.246;-6.670;2023-02-19T06:53:42;102320.00;;;7.38;100.00
55916;BME280;41826;53.246;-6.670;2023-02-19T06:56:26;102316.38;;;7.57;100.00
55916;BME280;41826;53.246;-6.670;2023-02-19T06:58:57;102317.19;;;7.42;100.00
55916;BME280;41826;53.246;-6.670;2023-02-19T07:01:24;102325.31;;;7.53;100.00
55916;BME280;41826;53.246;-6.670;2023-02-19T07:03:49;102327.16;;;7.51;100.00
55916;BME280;41826;53.246;-6.670;2023-02-19T07:06:16;102334.28;;;7.31;100.00
55916;BME280;41826;53.246;-6.670;2023-02-19T07:08:42;102347.22;;;7.50;100.00
55916;BME280;41826;53.246;-6.670;2023-02-19T07:11:07;102328.34;;;7.45;100.00
55916;BME280;41826;53.246;-6.670;2023-02-19T07:13:32;102321.75;;;7.38;100.00
55916;BME280;41826;53.246;-6.670;2023-02-19T07:16:00;102313.56;;;7.28;100.00
55916;BME280;41826;53.246;-6.670;2023-02-19T07:18:26;102305.31;;;7.36;100.00
55916;BME280;41826;53.246;-6.670;2023-02-19T07:20:52;102303.66;;;7.35;100.00
55916;BME280;41826;53.246;-6.670;2023-02-19T07:23:17;102302.56;;;7.55;100.00
55916;BME280;41826;53.246;-6.670;2023-02-19T07:25:42;102305.59;;;7.47;100.00
55916;BME280;41826;53.246;-6.670;2023-02-19T07:28:08;102305.00;;;7.42;100.00
55916;BME280;41826;53.246;-6.670;2023-02-19T07:30:33;102317.19;;;7.42;100.00
55916;BME280;41826;53.246;-6.670;2023-02-19T07:32:58;102327.50;;;7.45;100.00
55916;BME280;41826;53.246;-6.670;2023-02-19T07:35:24;102319.50;;;7.48;100.00
55916;BME280;41826;53.246;-6.670;2023-02-19T07:37:49;102329.66;;;7.36;100.00
55916;BME280;41826;53.246;-6.670;2023-02-19T07:40:15;102336.94;;;7.47;100.00
55916;BME280;41826;53.246;-6.670;2023-02-19T07:42:40;102338.13;;;7.57;100.00
55916;BME280;41826;53.246;-6.670;2023-02-19T07:45:06;102339.97;;;7.71;100.00
55916;BME280;41826;53.246;-6.670;2023-02-19T07:47:31;102333.56;;;7.77;100.00
55916;BME280;41826;53.246;-6.670;2023-02-19T07:49:57;102354.16;;;7.67;100.00
55916;BME280;41826;53.246;-6.670;2023-02-19T07:52:22;102343.38;;;7.73;100.00
55916;BME280;41826;53.246;-6.670;2023-02-19T07:54:47;102341.34;;;7.78;100.00
55916;BME280;41826;53.246;-6.670;2023-02-19T07:57:13;102350.28;;;7.58;100.00
55916;BME280;41826;53.246;-6.670;2023-02-19T07:59:38;102343.38;;;7.73;100.00
55916;BME280;41826;53.246;-6.670;2023-02-19T08:02:18;102358.38;;;7.86;100.00
55916;BME280;41826;53.246;-6.670;2023-02-19T08:05:03;102365.81;;;7.77;100.00
55916;BME280;41826;53.246;-6.670;2023-02-19T08:07:33;102363.50;;;7.71;100.00
55916;BME280;41826;53.246;-6.670;2023-02-19T08:10:00;102350.84;;;7.79;100.00
55916;BME280;41826;53.246;-6.670;2023-02-19T08:12:44;102374.50;;;7.78;100.00
55916;BME280;41826;53.246;-6.670;2023-02-19T08:15:27;102380.31;;;7.83;100.00
55916;BME280;41826;53.246;-6.670;2023-02-19T08:17:53;102379.13;;;7.73;100.00
55916;BME280;41826;53.246;-6.670;2023-02-19T08:20:18;102377.19;;;7.76;100.00
55916;BME280;41826;53.246;-6.670;2023-02-19T08:22:44;102376.59;;;7.71;100.00
55916;BME280;41826;53.246;-6.670;2023-02-19T08:25:09;102374.16;;;7.68;100.00
55916;BME280;41826;53.246;-6.670;2023-02-19T08:27:34;102367.00;;;7.88;100.00
55916;BME280;41826;53.246;-6.670;2023-02-19T08:30:00;102373.97;;;7.71;100.00
55916;BME280;41826;53.246;-6.670;2023-02-19T08:32:25;102355.34;;;7.93;100.00
55916;BME280;41826;53.246;-6.670;2023-02-19T08:34:50;102366.81;;;7.75;100.00
55916;BME280;41826;53.246;-6.670;2023-02-19T08:37:16;102352.75;;;7.77;100.00
55916;BME280;41826;53.246;-6.670;2023-02-19T08:39:41;102351.13;;;7.91;100.00
55916;BME280;41826;53.246;-6.670;2023-02-19T08:42:06;102345.56;;;7.65;100.00
55916;BME280;41826;53.246;-6.670;2023-02-19T08:44:32;102333.25;;;7.83;100.00
55916;BME280;41826;53.246;-6.670;2023-02-19T08:46:57;102328.34;;;7.77;100.00
55916;BME280;41826;53.246;-6.670;2023-02-19T08:49:26;102321.78;;;7.70;100.00
55916;BME280;41826;53.246;-6.670;2023-02-19T08:51:51;102320.34;;;7.64;100.00
55916;BME280;41826;53.246;-6.670;2023-02-19T08:54:17;102316.88;;;7.79;100.00
55916;BME280;41826;53.246;-6.670;2023-02-19T08:56:42;102318.03;;;7.90;100.00
55916;BME280;41826;53.246;-6.670;2023-02-19T08:59:08;102313.09;;;7.85;100.00
55916;BME280;41826;53.246;-6.670;2023-02-19T09:01:33;102321.78;;;7.86;100.00
55916;BME280;41826;53.246;-6.670;2023-02-19T09:03:59;102323.63;;;7.84;100.00
55916;BME280;41826;53.246;-6.670;2023-02-19T09:06:24;102322.19;;;7.78;100.00
55916;BME280;41826;53.246;-6.670;2023-02-19T09:08:50;102323.44;;;7.87;100.00
55916;BME280;41826;53.246;-6.670;2023-02-19T09:11:15;102326.91;;;7.87;100.00
55916;BME280;41826;53.246;-6.670;2023-02-19T09:13:41;102317.91;;;7.93;100.00
55916;BME280;41826;53.246;-6.670;2023-02-19T09:16:07;102314.34;;;7.94;100.00
55916;BME280;41826;53.246;-6.670;2023-02-19T09:18:32;102332.59;;;8.10;100.00
55916;BME280;41826;53.246;-6.670;2023-02-19T09:20:59;102337.63;;;7.98;100.00
55916;BME280;41826;53.246;-6.670;2023-02-19T09:23:25;102342.50;;;8.20;100.00
55916;BME280;41826;53.246;-6.670;2023-02-19T09:25:59;102343.56;;;8.16;100.00
55916;BME280;41826;53.246;-6.670;2023-02-19T09:28:25;102334.34;;;8.25;100.00
55916;BME280;41826;53.246;-6.670;2023-02-19T09:30:50;102343.97;;;8.24;100.00
55916;BME280;41826;53.246;-6.670;2023-02-19T09:33:16;102342.44;;;8.36;100.00
55916;BME280;41826;53.246;-6.670;2023-02-19T09:35:42;102343.66;;;8.31;100.00
55916;BME280;41826;53.246;-6.670;2023-02-19T09:38:07;102344.16;;;8.21;100.00
55916;BME280;41826;53.246;-6.670;2023-02-19T09:40:36;102347.72;;;8.20;100.00
55916;BME280;41826;53.246;-6.670;2023-02-19T09:43:05;102352.94;;;8.20;100.00
55916;BME280;41826;53.246;-6.670;2023-02-19T09:45:33;102362.53;;;8.20;100.00
55916;BME280;41826;53.246;-6.670;2023-02-19T09:48:00;102373.44;;;8.28;100.00
55916;BME280;41826;53.246;-6.670;2023-02-19T09:50:35;102359.16;;;8.34;100.00
55916;BME280;41826;53.246;-6.670;2023-02-19T09:53:04;102368.38;;;8.41;100.00
55916;BME280;41826;53.246;-6.670;2023-02-19T09:55:38;102387.88;;;8.51;100.00
55916;BME280;41826;53.246;-6.670;2023-02-19T09:58:29;102409.78;;;8.64;100.00
55916;BME280;41826;53.246;-6.670;2023-02-19T10:00:59;102419.16;;;8.68;100.00
55916;BME280;41826;53.246;-6.670;2023-02-19T10:03:36;102415.13;;;8.77;100.00
55916;BME280;41826;53.246;-6.670;2023-02-19T10:06:25;102415.31;;;8.74;100.00
55916;BME280;41826;53.246;-6.670;2023-02-19T10:09:00;102432.91;;;8.72;100.00
55916;BME280;41826;53.246;-6.670;2023-02-19T10:11:32;102441.13;;;8.80;100.00
55916;BME280;41826;53.246;-6.670;2023-02-19T10:14:05;102455.50;;;8.89;100.00
55916;BME280;41826;53.246;-6.670;2023-02-19T10:16:35;102456.53;;;9.01;100.00
55916;BME280;41826;53.246;-6.670;2023-02-19T10:19:05;102471.28;;;8.87;100.00
55916;BME280;41826;53.246;-6.670;2023-02-19T10:21:34;102468.66;;;8.87;100.00
55916;BME280;41826;53.246;-6.670;2023-02-19T10:24:01;102471.22;;;8.73;100.00
55916;BME280;41826;53.246;-6.670;2023-02-19T10:26:28;102467.78;;;8.73;100.00
55916;BME280;41826;53.246;-6.670;2023-02-19T10:28:59;102465.25;;;8.71;100.00
55916;BME280;41826;53.246;-6.670;2023-02-19T10:31:25;102463.66;;;8.53;100.00
55916;BME280;41826;53.246;-6.670;2023-02-19T10:33:55;102460.47;;;8.63;100.00
55916;BME280;41826;53.246;-6.670;2023-02-19T10:38:50;102470.97;;;8.78;100.00
55916;BME280;41826;53.246;-6.670;2023-02-19T10:41:17;102463.63;;;8.84;100.00
55916;BME280;41826;53.246;-6.670;2023-02-19T10:43:52;102469.25;;;8.93;100.00
55916;BME280;41826;53.246;-6.670;2023-02-19T10:46:25;102465.22;;;9.01;100.00
55916;BME280;41826;53.246;-6.670;2023-02-19T10:51:30;102468.72;;;9.16;100.00
55916;BME280;41826;53.246;-6.670;2023-02-19T10:56:42;102460.06;;;9.30;100.00
55916;BME280;41826;53.246;-6.670;2023-02-19T11:02:01;102480.28;;;9.28;100.00
55916;BME280;41826;53.246;-6.670;2023-02-19T11:04:31;102494.22;;;9.28;100.00
55916;BME280;41826;53.246;-6.670;2023-02-19T11:07:16;102499.94;;;9.35;100.00
55916;BME280;41826;53.246;-6.670;2023-02-19T11:09:44;102521.19;;;9.30;100.00
55916;BME280;41826;53.246;-6.670;2023-02-19T11:12:12;102520.28;;;9.46;100.00
55916;BME280;41826;53.246;-6.670;2023-02-19T11:14:43;102543.63;;;9.65;100.00
55916;BME280;41826;53.246;-6.670;2023-02-19T11:17:21;102553.94;;;9.68;100.00
55916;BME280;41826;53.246;-6.670;2023-02-19T11:19:50;102566.47;;;9.77;100.00
55916;BME280;41826;53.246;-6.670;2023-02-19T11:22:44;102563.97;;;9.75;100.00
55916;BME280;41826;53.246;-6.670;2023-02-19T11:25:17;102576.13;;;9.62;100.00
55916;BME280;41826;53.246;-6.670;2023-02-19T11:30:43;102599.84;;;9.75;100.00
55916;BME280;41826;53.246;-6.670;2023-02-19T11:35:42;102613.69;;;9.77;100.00
55916;BME280;41826;53.246;-6.670;2023-02-19T11:38:09;102611.81;;;9.65;100.00
55916;BME280;41826;53.246;-6.670;2023-02-19T11:40:51;102621.16;;;9.54;100.00
55916;BME280;41826;53.246;-6.670;2023-02-19T11:52:55;102610.72;;;9.97;100.00
55916;BME280;41826;53.246;-6.670;2023-02-19T11:55:40;102606.78;;;9.90;100.00
55916;BME280;41826;53.246;-6.670;2023-02-19T12:01:11;102608.78;;;9.57;100.00
55916;BME280;41826;53.246;-6.670;2023-02-19T12:03:55;102588.69;;;9.86;100.00
55916;BME280;41826;53.246;-6.670;2023-02-19T12:06:49;102598.53;;;9.96;100.00
55916;BME280;41826;53.246;-6.670;2023-02-19T12:14:47;102580.91;;;9.84;100.00
55916;BME280;41826;53.246;-6.670;2023-02-19T12:17:32;102586.66;;;9.91;100.00
55916;BME280;41826;53.246;-6.670;2023-02-19T12:25:35;102583.84;;;9.94;100.00
55916;BME280;41826;53.246;-6.670;2023-02-19T12:38:52;102559.34;;;10.22;100.00
55916;BME280;41826;53.246;-6.670;2023-02-19T12:41:25;102547.00;;;10.24;100.00
55916;BME280;41826;53.246;-6.670;2023-02-19T12:44:41;102544.75;;;10.47;100.00
55916;BME280;41826;53.246;-6.670;2023-02-19T12:47:06;102546.06;;;10.39;100.00
55916;BME280;41826;53.246;-6.670;2023-02-19T12:49:39;102538.47;;;10.35;100.00
55916;BME280;41826;53.246;-6.670;2023-02-19T12:52:10;102530.28;;;10.25;100.00
55916;BME280;41826;53.246;-6.670;2023-02-19T12:54:46;102524.72;;;10.31;100.00
55916;BME280;41826;53.246;-6.670;2023-02-19T12:57:20;102507.44;;;10.41;100.00
55916;BME280;41826;53.246;-6.670;2023-02-19T13:04:51;102508.63;;;10.50;100.00
55916;BME280;41826;53.246;-6.670;2023-02-19T13:07:25;102502.38;;;10.38;100.00
55916;BME280;41826;53.246;-6.670;2023-02-19T13:09:57;102493.34;;;10.43;100.00
55916;BME280;41826;53.246;-6.670;2023-02-19T13:12:38;102493.75;;;10.36;100.00
55916;BME280;41826;53.246;-6.670;2023-02-19T13:15:16;102477.25;;;10.61;100.00
55916;BME280;41826;53.246;-6.670;2023-02-19T13:17:56;102482.72;;;10.58;100.00
55916;BME280;41826;53.246;-6.670;2023-02-19T13:20:30;102475.00;;;10.82;100.00
55916;BME280;41826;53.246;-6.670;2023-02-19T13:28:52;102482.56;;;10.74;100.00
55916;BME280;41826;53.246;-6.670;2023-02-19T13:34:04;102473.94;;;10.72;100.00
55916;BME280;41826;53.246;-6.670;2023-02-19T13:36:34;102473.94;;;10.72;100.00
55916;BME280;41826;53.246;-6.670;2023-02-19T13:39:04;102479.94;;;10.74;100.00
55916;BME280;41826;53.246;-6.670;2023-02-19T13:41:39;102471.25;;;10.87;100.00
55916;BME280;41826;53.246;-6.670;2023-02-19T13:44:15;102472.84;;;11.02;100.00
55916;BME280;41826;53.246;-6.670;2023-02-19T13:46:44;102470.44;;;11.12;100.00
55916;BME280;41826;53.246;-6.670;2023-02-19T13:49:42;102480.47;;;10.79;100.00
55916;BME280;41826;53.246;-6.670;2023-02-19T14:00:50;102482.00;;;11.09;100.00
55916;BME280;41826;53.246;-6.670;2023-02-19T14:06:05;102479.56;;;11.06;100.00
55916;BME280;41826;53.246;-6.670;2023-02-19T14:11:16;102469.19;;;11.17;100.00
55916;BME280;41826;53.246;-6.670;2023-02-19T14:18:59;102439.09;;;11.21;100.00
55916;BME280;41826;53.246;-6.670;2023-02-19T14:21:36;102454.69;;;11.12;100.00
55916;BME280;41826;53.246;-6.670;2023-02-19T14:24:02;102459.81;;;11.39;100.00
55916;BME280;41826;53.246;-6.670;2023-02-19T14:26:31;102449.22;;;11.40;100.00
55916;BME280;41826;53.246;-6.670;2023-02-19T14:28:57;102460.56;;;11.15;100.00
55916;BME280;41826;53.246;-6.670;2023-02-19T14:31:30;102442.16;;;11.15;100.00
55916;BME280;41826;53.246;-6.670;2023-02-19T14:34:02;102443.97;;;11.27;100.00
55916;BME280;41826;53.246;-6.670;2023-02-19T14:36:36;102423.66;;;11.55;100.00
55916;BME280;41826;53.246;-6.670;2023-02-19T14:39:15;102432.16;;;11.33;100.00
55916;BME280;41826;53.246;-6.670;2023-02-19T14:41:44;102433.00;;;11.46;100.00
55916;BME280;41826;53.246;-6.670;2023-02-19T14:44:26;102415.72;;;11.68;100.00
55916;BME280;41826;53.246;-6.670;2023-02-19T14:46:57;102413.00;;;11.57;100.00